Time;durP1;ratioP1;P1;durP2;ratioP2;P2;SDS_P1;SDS_P2;PMS_P1;PMS_P2;Temp;Humidity;BMP_temperature;BMP_pressure;BME280_temperature;BME280_humidity;BME280_pressure;Samples;Min_cycle;Max_cycle;Signal;HPM_P1;HPM_P2
2021/07/04 00:01:08;;;;;;;3.35;2.40;;;23.30;64.20;;;;;;5077850;28;20035;-85
2021/07/04 00:03:34;;;;;;;3.35;2.20;;;23.30;64.20;;;;;;5076241;28;20028;-86
2021/07/04 00:06:00;;;;;;;2.67;2.28;;;23.30;64.30;;;;;;5071061;28;20024;-84
2021/07/04 00:08:26;;;;;;;2.90;2.25;;;23.30;64.30;;;;;;5079651;28;20028;-86
2021/07/04 00:10:58;;;;;;;3.05;2.38;;;23.20;64.30;;;;;;5079394;28;20027;-86
2021/07/04 00:13:26;;;;;;;2.50;2.22;;;23.20;64.30;;;;;;5078138;28;20028;-86
2021/07/04 00:15:52;;;;;;;3.00;2.38;;;23.20;64.30;;;;;;5079432;28;20123;-87
2021/07/04 00:18:22;;;;;;;3.40;2.40;;;23.20;64.30;;;;;;5096403;28;20027;-88
2021/07/04 00:20:50;;;;;;;2.85;2.05;;;23.20;64.40;;;;;;5076065;28;20056;-88
2021/07/04 00:23:19;;;;;;;2.75;2.17;;;23.20;64.30;;;;;;5091940;28;20078;-87
2021/07/04 00:25:46;;;;;;;2.53;2.13;;;23.10;64.30;;;;;;5071186;28;20027;-87
2021/07/04 00:28:13;;;;;;;2.92;2.30;;;23.10;64.30;;;;;;5079202;28;20028;-88
2021/07/04 00:30:39;;;;;;;3.25;2.38;;;23.10;64.30;;;;;;5079113;28;20467;-88
2021/07/04 00:33:06;;;;;;;2.88;2.15;;;23.10;64.40;;;;;;5075761;28;20032;-88
2021/07/04 00:35:33;;;;;;;1.95;1.70;;;23.10;64.40;;;;;;5076231;28;20026;-85
2021/07/04 00:37:59;;;;;;;2.63;1.98;;;23.10;64.50;;;;;;5096136;28;20112;-87
2021/07/04 00:40:27;;;;;;;3.25;2.30;;;23.10;64.40;;;;;;5062452;28;20027;-87
2021/07/04 00:42:53;;;;;;;3.05;2.10;;;23.10;64.50;;;;;;5078993;28;20032;-86
2021/07/04 00:45:24;;;;;;;2.22;1.90;;;23.00;64.50;;;;;;5078982;28;20055;-86
2021/07/04 00:47:51;;;;;;;2.40;2.00;;;23.00;64.50;;;;;;5062513;28;20036;-84
2021/07/04 00:50:21;;;;;;;2.55;2.05;;;23.00;64.50;;;;;;5079298;28;20077;-86
2021/07/04 00:52:48;;;;;;;3.63;2.33;;;23.00;64.50;;;;;;5079137;28;20039;-86
2021/07/04 00:55:16;;;;;;;2.70;1.92;;;23.00;64.50;;;;;;5078661;28;20047;-86
2021/07/04 00:57:45;;;;;;;2.50;2.10;;;22.90;64.50;;;;;;5095720;28;20028;-86
2021/07/04 01:00:15;;;;;;;2.60;2.00;;;22.90;64.50;;;;;;5072605;28;20043;-86
2021/07/04 01:02:42;;;;;;;2.15;1.85;;;22.90;64.50;;;;;;5095236;28;20038;-85
2021/07/04 01:05:15;;;;;;;2.22;2.00;;;22.90;64.50;;;;;;5078353;28;20031;-85
2021/07/04 01:07:44;;;;;;;2.38;1.80;;;22.90;64.60;;;;;;5067578;28;20024;-85
2021/07/04 01:10:17;;;;;;;2.40;1.98;;;22.80;64.50;;;;;;5084435;28;20463;-85
2021/07/04 01:12:51;;;;;;;2.65;1.98;;;22.80;64.60;;;;;;5088834;28;20463;-85
2021/07/04 01:15:19;;;;;;;2.90;2.03;;;22.80;64.50;;;;;;5095101;28;20110;-85
2021/07/04 01:17:48;;;;;;;3.08;2.15;;;22.80;65.20;;;;;;5057410;28;20465;-85
2021/07/04 01:20:20;;;;;;;2.20;1.90;;;22.80;64.50;;;;;;5091630;28;20028;-85
2021/07/04 01:23:02;;;;;;;2.53;1.88;;;22.80;64.60;;;;;;5087157;28;20023;-85
2021/07/04 01:25:31;;;;;;;3.03;2.00;;;22.80;64.60;;;;;;5077888;28;20032;-85
2021/07/04 01:27:59;;;;;;;3.35;2.10;;;22.80;64.60;;;;;;5076362;28;20020;-85
2021/07/04 01:30:26;;;;;;;2.35;1.77;;;22.70;64.60;;;;;;5070377;28;20023;-85
2021/07/04 01:32:52;;;;;;;2.55;2.08;;;22.70;64.50;;;;;;5070226;28;20079;-85
2021/07/04 01:35:19;;;;;;;3.40;2.17;;;22.70;64.50;;;;;;5077620;28;20118;-85
2021/07/04 01:37:45;;;;;;;3.08;1.90;;;22.70;64.60;;;;;;5049340;28;20031;-85
2021/07/04 01:40:13;;;;;;;2.67;2.03;;;22.70;65.20;;;;;;5065719;28;20100;-85
2021/07/04 01:42:42;;;;;;;2.53;1.90;;;22.70;64.60;;;;;;5082359;28;20039;-85
2021/07/04 01:45:15;;;;;;;2.28;1.80;;;22.70;64.60;;;;;;5062952;28;20383;-85
2021/07/04 01:47:43;;;;;;;2.47;1.90;;;22.70;64.70;;;;;;5085964;28;20026;-85
2021/07/04 01:50:15;;;;;;;2.08;1.70;;;22.70;64.60;;;;;;5078846;28;20511;-85
2021/07/04 01:52:42;;;;;;;2.55;1.90;;;22.60;64.60;;;;;;5074640;28;20085;-84
2021/07/04 01:55:11;;;;;;;2.78;1.92;;;22.60;64.60;;;;;;5081743;28;20567;-85
2021/07/04 01:57:40;;;;;;;2.40;1.83;;;22.60;64.60;;;;;;5079171;28;20051;-86
2021/07/04 02:00:18;;;;;;;2.55;1.90;;;22.60;64.60;;;;;;5090637;28;20577;-85
2021/07/04 02:02:49;;;;;;;2.33;2.00;;;22.60;64.70;;;;;;5093289;28;20023;-84
2021/07/04 02:05:24;;;;;;;2.20;1.77;;;22.60;64.70;;;;;;5081028;28;20031;-86
2021/07/04 02:07:52;;;;;;;2.72;1.92;;;22.50;64.60;;;;;;5082490;28;20031;-85
2021/07/04 02:10:24;;;;;;;2.00;1.80;;;22.60;64.70;;;;;;5079911;28;20020;-86
2021/07/04 02:12:53;;;;;;;2.40;1.70;;;22.50;64.70;;;;;;5098994;28;20023;-84
2021/07/04 02:15:27;;;;;;;2.67;1.98;;;22.50;64.60;;;;;;5084390;28;20016;-85
2021/07/04 02:18:19;;;;;;;2.05;1.75;;;22.50;64.70;;;;;;5091739;28;20023;-85
2021/07/04 02:21:04;;;;;;;2.13;1.90;;;22.50;64.60;;;;;;5101360;28;20035;-85
2021/07/04 02:23:38;;;;;;;1.70;1.60;;;22.50;64.70;;;;;;5098376;28;20446;-85
2021/07/04 02:26:27;;;;;;;2.03;1.80;;;22.40;64.60;;;;;;5081941;28;20051;-84
2021/07/04 02:28:57;;;;;;;2.42;2.10;;;22.50;64.70;;;;;;5098737;28;20028;-84
2021/07/04 02:31:36;;;;;;;2.13;1.90;;;22.40;64.70;;;;;;5077723;28;20115;-85
2021/07/04 02:34:04;;;;;;;2.67;2.03;;;22.40;64.70;;;;;;5097768;28;20036;-85
2021/07/04 02:36:37;;;;;;;2.28;1.83;;;22.40;64.80;;;;;;5076020;28;20042;-85
2021/07/04 02:39:15;;;;;;;2.65;1.77;;;22.40;64.80;;;;;;5097962;28;20031;-85
2021/07/04 02:41:42;;;;;;;3.00;2.10;;;22.40;64.80;;;;;;5089407;28;20028;-85
2021/07/04 02:44:09;;;;;;;2.55;2.05;;;22.40;64.90;;;;;;5081288;28;20035;-84
2021/07/04 02:46:37;;;;;;;1.83;1.67;;;22.40;64.90;;;;;;5079590;28;20024;-84
2021/07/04 02:49:04;;;;;;;2.28;1.65;;;22.40;64.90;;;;;;5081296;28;20028;-84
2021/07/04 02:51:31;;;;;;;2.25;1.70;;;22.30;64.80;;;;;;5072390;28;20482;-85
2021/07/04 02:53:58;;;;;;;2.20;1.90;;;22.30;64.80;;;;;;5093930;28;20479;-85
2021/07/04 02:56:24;;;;;;;2.30;1.73;;;22.30;64.80;;;;;;5073874;28;20028;-84
2021/07/04 02:58:51;;;;;;;2.03;1.75;;;22.30;64.80;;;;;;5077175;28;20039;-84
2021/07/04 03:01:18;;;;;;;2.03;1.83;;;22.30;64.90;;;;;;5057755;28;20471;-85
2021/07/04 03:03:44;;;;;;;2.20;1.77;;;22.30;64.90;;;;;;5060663;28;20044;-85
2021/07/04 03:06:11;;;;;;;2.55;1.90;;;22.30;64.90;;;;;;5094486;28;20111;-84
2021/07/04 03:08:43;;;;;;;2.60;1.80;;;22.30;64.90;;;;;;5077722;28;20468;-85
2021/07/04 03:11:11;;;;;;;2.15;1.70;;;22.30;64.90;;;;;;5070254;28;20035;-85
2021/07/04 03:13:38;;;;;;;2.72;1.80;;;22.30;64.90;;;;;;5076808;28;20032;-85
2021/07/04 03:16:04;;;;;;;2.22;2.00;;;22.30;64.90;;;;;;5094241;28;20024;-85
2021/07/04 03:18:32;;;;;;;2.30;1.80;;;22.30;65.00;;;;;;5076783;28;20022;-85
2021/07/04 03:20:59;;;;;;;2.42;1.83;;;22.30;65.00;;;;;;5073528;28;20021;-85
2021/07/04 03:23:26;;;;;;;2.00;1.80;;;22.20;64.90;;;;;;5076136;28;20032;-85
2021/07/04 03:25:56;;;;;;;2.75;2.00;;;22.20;64.90;;;;;;5076705;28;20024;-85
2021/07/04 03:28:26;;;;;;;2.38;1.90;;;22.20;65.00;;;;;;5077247;28;20024;-85
2021/07/04 03:30:56;;;;;;;1.88;1.73;;;22.20;65.00;;;;;;5072677;28;20092;-85
2021/07/04 03:33:22;;;;;;;2.30;2.10;;;22.20;64.90;;;;;;5076644;28;20464;-85
2021/07/04 03:35:48;;;;;;;2.28;1.90;;;22.20;65.60;;;;;;5059936;28;20032;-84
2021/07/04 03:38:15;;;;;;;2.03;1.73;;;22.20;65.00;;;;;;5077108;28;20028;-84
2021/07/04 03:40:44;;;;;;;2.08;1.77;;;22.20;65.00;;;;;;5077203;28;20027;-85
2021/07/04 03:43:19;;;;;;;1.98;1.73;;;22.20;65.00;;;;;;5094091;28;20031;-85
2021/07/04 03:45:45;;;;;;;2.08;1.80;;;22.20;65.00;;;;;;5075749;28;20050;-84
2021/07/04 03:48:11;;;;;;;1.83;1.60;;;22.20;65.00;;;;;;5070572;28;20028;-85
2021/07/04 03:50:44;;;;;;;2.53;1.73;;;22.10;65.00;;;;;;5059276;28;20028;-85
2021/07/04 03:53:11;;;;;;;2.88;2.03;;;22.10;65.00;;;;;;5084942;28;20468;-85
2021/07/04 03:55:38;;;;;;;2.63;2.03;;;22.10;65.00;;;;;;5076307;28;20036;-85
2021/07/04 03:58:04;;;;;;;2.25;1.95;;;22.10;65.00;;;;;;5072043;28;20388;-85
2021/07/04 04:00:36;;;;;;;2.53;1.98;;;22.10;65.10;;;;;;5057844;28;20039;-85
2021/07/04 04:03:09;;;;;;;2.47;1.95;;;22.10;65.10;;;;;;5093193;28;20022;-85
2021/07/04 04:05:42;;;;;;;2.47;1.97;;;22.10;65.10;;;;;;5077165;28;20043;-85
2021/07/04 04:08:08;;;;;;;2.35;1.90;;;22.10;65.00;;;;;;5051540;28;20020;-85
2021/07/04 04:10:37;;;;;;;1.92;1.67;;;22.10;65.10;;;;;;5061326;28;20080;-85
2021/07/04 04:13:09;;;;;;;2.00;1.70;;;22.10;65.10;;;;;;5092021;28;20028;-85
2021/07/04 04:15:38;;;;;;;1.90;1.70;;;22.10;65.10;;;;;;5076285;28;20039;-85
2021/07/04 04:18:06;;;;;;;2.35;1.88;;;22.10;65.10;;;;;;5057425;28;20037;-85
2021/07/04 04:20:34;;;;;;;2.15;1.95;;;22.00;65.10;;;;;;5076028;28;20024;-86
2021/07/04 04:23:03;;;;;;;2.45;1.90;;;22.10;65.20;;;;;;5072766;28;20025;-85
2021/07/04 04:25:29;;;;;;;2.42;1.88;;;22.10;65.20;;;;;;5072243;28;20021;-84
2021/07/04 04:27:57;;;;;;;2.47;2.10;;;22.10;65.20;;;;;;5076045;28;20124;-85
2021/07/04 04:30:23;;;;;;;2.50;1.77;;;22.00;65.20;;;;;;5058435;28;20032;-85
2021/07/04 04:32:52;;;;;;;2.20;1.83;;;22.00;65.20;;;;;;5071980;28;20066;-85
2021/07/04 04:35:18;;;;;;;2.28;1.80;;;22.00;65.20;;;;;;5076286;28;20483;-84
2021/07/04 04:37:44;;;;;;;2.28;1.88;;;22.00;65.20;;;;;;5047527;28;20032;-86
2021/07/04 04:40:10;;;;;;;3.03;1.88;;;22.00;65.20;;;;;;5035225;28;20032;-86
2021/07/04 04:42:36;;;;;;;2.53;1.90;;;22.00;65.30;;;;;;5074095;28;20016;-86
2021/07/04 04:45:03;;;;;;;2.42;2.00;;;22.00;65.30;;;;;;5072272;28;20031;-85
2021/07/04 04:47:29;;;;;;;2.50;1.90;;;22.00;65.30;;;;;;5072925;28;20016;-85
2021/07/04 04:49:55;;;;;;;2.45;2.00;;;22.00;65.30;;;;;;5072636;28;20124;-85
2021/07/04 04:52:21;;;;;;;2.28;1.98;;;22.00;65.30;;;;;;5071365;28;20035;-85
2021/07/04 04:54:47;;;;;;;2.60;2.00;;;22.00;65.30;;;;;;5078491;28;20044;-85
2021/07/04 04:57:13;;;;;;;2.88;2.35;;;22.00;65.30;;;;;;5055667;28;20028;-85
2021/07/04 04:59:39;;;;;;;3.35;2.33;;;22.00;65.40;;;;;;5055386;28;20491;-85
2021/07/04 05:02:05;;;;;;;2.35;1.88;;;22.00;65.30;;;;;;5038937;28;20016;-84
2021/07/04 05:04:32;;;;;;;2.78;2.10;;;22.00;65.40;;;;;;5055228;28;20098;-85
2021/07/04 05:06:58;;;;;;;2.70;2.10;;;22.00;65.40;;;;;;5055169;28;20024;-87
2021/07/04 05:09:28;;;;;;;2.50;2.00;;;22.00;66.10;;;;;;5072541;28;20025;-85
2021/07/04 05:11:54;;;;;;;2.70;2.35;;;22.00;65.40;;;;;;5076007;28;20036;-85
2021/07/04 05:14:20;;;;;;;2.80;2.20;;;22.00;65.50;;;;;;5042666;28;20037;-85
2021/07/04 05:16:47;;;;;;;2.42;2.10;;;22.00;65.50;;;;;;5052100;28;20167;-84
2021/07/04 05:19:13;;;;;;;3.40;2.30;;;22.00;65.50;;;;;;5048834;28;20032;-85
2021/07/04 05:21:39;;;;;;;3.10;2.40;;;22.00;65.50;;;;;;5075891;28;20021;-85
2021/07/04 05:24:07;;;;;;;2.80;2.20;;;22.00;65.50;;;;;;5059381;28;20032;-84
2021/07/04 05:26:34;;;;;;;2.45;2.15;;;22.00;65.60;;;;;;5075711;28;20106;-85
2021/07/04 05:29:01;;;;;;;3.05;2.30;;;22.00;65.50;;;;;;5059322;28;20464;-84
2021/07/04 05:31:27;;;;;;;3.42;2.38;;;22.00;65.50;;;;;;5075960;28;20054;-84
2021/07/04 05:33:53;;;;;;;2.75;2.22;;;22.00;65.60;;;;;;5058702;28;20047;-85
2021/07/04 05:36:19;;;;;;;3.40;2.50;;;22.00;66.20;;;;;;5075723;28;20027;-85
2021/07/04 05:38:46;;;;;;;2.70;2.17;;;22.00;65.60;;;;;;5058547;28;20028;-85
2021/07/04 05:41:14;;;;;;;3.50;2.63;;;22.00;65.60;;;;;;5075484;28;20020;-85
2021/07/04 05:43:42;;;;;;;2.75;2.28;;;22.00;65.60;;;;;;5041933;28;20037;-85
2021/07/04 05:46:08;;;;;;;3.22;2.42;;;22.00;65.60;;;;;;5058249;28;20029;-85
2021/07/04 05:48:36;;;;;;;3.17;2.65;;;22.00;65.60;;;;;;5058712;28;20020;-84
2021/07/04 05:51:02;;;;;;;3.60;2.80;;;22.00;65.60;;;;;;5059186;28;20040;-84
2021/07/04 05:53:28;;;;;;;3.80;2.90;;;22.00;65.60;;;;;;5062940;28;20472;-86
2021/07/04 05:55:54;;;;;;;3.25;2.42;;;22.00;65.60;;;;;;5081914;28;20027;-85
2021/07/04 05:58:20;;;;;;;3.50;2.80;;;22.00;65.60;;;;;;5098706;28;20037;-85
2021/07/04 06:00:47;;;;;;;3.20;2.45;;;22.00;65.60;;;;;;5079026;28;20031;-85
2021/07/04 06:03:14;;;;;;;3.50;2.55;;;22.10;65.70;;;;;;5098566;28;20024;-85
2021/07/04 06:05:40;;;;;;;3.10;2.47;;;22.10;65.70;;;;;;5081766;28;20107;-85
2021/07/04 06:08:07;;;;;;;3.55;2.78;;;22.10;65.70;;;;;;5078281;28;20471;-85
2021/07/04 06:10:34;;;;;;;4.03;2.92;;;22.10;65.80;;;;;;5080945;28;20161;-85
2021/07/04 06:13:00;;;;;;;3.25;2.50;;;22.10;65.80;;;;;;5080794;28;20464;-86
2021/07/04 06:15:26;;;;;;;3.85;2.85;;;22.10;65.80;;;;;;5064989;28;20479;-86
2021/07/04 06:17:52;;;;;;;4.57;3.00;;;22.10;65.80;;;;;;5079636;28;20024;-86
2021/07/04 06:20:20;;;;;;;4.20;3.08;;;22.10;65.80;;;;;;5081641;28;20102;-87
2021/07/04 06:22:50;;;;;;;3.55;2.58;;;22.10;65.80;;;;;;5080793;28;20088;-86
2021/07/04 06:25:16;;;;;;;3.95;2.78;;;22.10;65.80;;;;;;5081694;28;20059;-86
2021/07/04 06:27:43;;;;;;;4.20;3.10;;;22.10;65.80;;;;;;5080664;28;20016;-86
2021/07/04 06:30:11;;;;;;;4.78;3.20;;;22.10;65.90;;;;;;5089871;28;20020;-85
2021/07/04 06:32:38;;;;;;;4.82;3.25;;;22.10;65.90;;;;;;5087626;28;20020;-86
2021/07/04 06:35:06;;;;;;;4.57;3.30;;;22.10;65.90;;;;;;5061431;28;20036;-85
2021/07/04 06:37:32;;;;;;;4.32;3.08;;;22.20;66.00;;;;;;5078903;28;20024;-86
2021/07/04 06:39:58;;;;;;;4.22;3.13;;;22.10;65.90;;;;;;5080889;28;20023;-87
2021/07/04 06:42:24;;;;;;;5.65;3.83;;;22.10;65.90;;;;;;5077425;28;20032;-86
2021/07/04 06:44:52;;;;;;;5.40;4.10;;;22.20;66.00;;;;;;5080841;28;20107;-87
2021/07/04 06:47:17;;;;;;;5.68;4.15;;;22.20;66.10;;;;;;5080839;28;20030;-88
2021/07/04 06:49:43;;;;;;;6.55;4.68;;;22.20;66.10;;;;;;5080229;28;20024;-88
2021/07/04 06:52:09;;;;;;;6.22;4.47;;;22.20;66.10;;;;;;5064137;28;20028;-87
2021/07/04 06:54:35;;;;;;;5.63;4.35;;;22.20;66.10;;;;;;5076654;28;20480;-85
2021/07/04 06:57:26;;;;;;;6.90;5.22;;;22.20;66.20;;;;;;5075835;28;20166;-85
2021/07/04 06:59:47;;;;;;;7.40;5.47;;;22.20;66.20;;;;;;5093377;28;20040;-83
2021/07/04 07:02:13;;;;;;;7.40;5.95;;;22.30;66.30;;;;;;5076786;28;20026;-83
2021/07/04 07:04:39;;;;;;;7.97;6.50;;;22.30;66.50;;;;;;5076830;28;20122;-83
2021/07/04 07:07:05;;;;;;;9.00;7.03;;;22.30;66.60;;;;;;5075115;28;20602;-83
2021/07/04 07:09:30;;;;;;;10.63;8.30;;;22.30;66.80;;;;;;5077029;28;20024;-84
2021/07/04 07:11:56;;;;;;;10.63;8.80;;;22.30;67.00;;;;;;5076540;28;20020;-84
2021/07/04 07:14:22;;;;;;;11.80;9.60;;;22.30;67.20;;;;;;5068406;28;20054;-85
2021/07/04 07:16:49;;;;;;;13.23;10.05;;;22.40;67.30;;;;;;5060005;28;20029;-84
2021/07/04 07:19:15;;;;;;;13.40;10.23;;;22.30;67.30;;;;;;5076243;28;20077;-83
2021/07/04 07:21:43;;;;;;;12.70;10.45;;;22.40;67.40;;;;;;5076358;28;20016;-83
2021/07/04 07:24:10;;;;;;;11.32;9.63;;;22.40;67.50;;;;;;5072713;28;20032;-84
2021/07/04 07:26:43;;;;;;;12.77;10.63;;;22.40;67.50;;;;;;5093530;28;20055;-86
2021/07/04 07:29:09;;;;;;;12.90;11.32;;;22.40;67.50;;;;;;5092741;28;20020;-87
2021/07/04 07:31:38;;;;;;;12.35;11.00;;;22.40;67.80;;;;;;5082498;28;20098;-91
2021/07/04 07:34:05;;;;;;;13.57;12.15;;;22.40;68.00;;;;;;5070385;28;20036;-88
2021/07/04 07:36:32;;;;;;;15.25;13.15;;;22.50;68.20;;;;;;5075980;28;20027;-84
2021/07/04 07:38:58;;;;;;;14.95;12.27;;;22.50;68.40;;;;;;5092589;28;20077;-83
2021/07/04 07:41:34;;;;;;;15.85;13.32;;;22.50;68.50;;;;;;5060203;28;20057;-84
2021/07/04 07:44:00;;;;;;;15.77;13.50;;;22.50;68.70;;;;;;5072415;28;20032;-85
2021/07/04 07:46:34;;;;;;;15.63;12.90;;;22.50;68.70;;;;;;5092587;28;20073;-84
2021/07/04 07:49:00;;;;;;;13.77;11.60;;;22.60;68.90;;;;;;5051832;28;20480;-83
2021/07/04 07:51:38;;;;;;;15.60;12.23;;;22.60;68.80;;;;;;5076577;28;20028;-83
2021/07/04 07:54:05;;;;;;;15.10;12.05;;;22.60;68.70;;;;;;5084381;28;20040;-83
2021/07/04 07:56:32;;;;;;;15.32;12.68;;;22.60;68.80;;;;;;5072245;28;20067;-83
2021/07/04 07:59:09;;;;;;;13.88;12.30;;;22.60;68.80;;;;;;5075462;28;20040;-86
2021/07/04 08:01:35;;;;;;;14.93;12.07;;;22.60;68.80;;;;;;5059919;28;20039;-84
2021/07/04 08:04:07;;;;;;;14.02;12.13;;;22.60;68.80;;;;;;5067633;28;20391;-83
2021/07/04 08:06:41;;;;;;;15.55;13.15;;;22.60;68.90;;;;;;5075349;28;20039;-91
2021/07/04 08:09:09;;;;;;;15.00;12.38;;;22.70;69.00;;;;;;5092348;28;20032;-84
2021/07/04 08:11:47;;;;;;;14.70;12.43;;;22.70;69.00;;;;;;5076653;28;20024;-88
2021/07/04 08:14:20;;;;;;;15.18;12.80;;;22.70;69.00;;;;;;5076669;28;20376;-89
2021/07/04 08:17:05;;;;;;;13.65;11.73;;;22.70;69.00;;;;;;5061037;28;20119;-92
2021/07/04 08:19:51;;;;;;;15.20;12.63;;;22.70;69.00;;;;;;5073130;28;20043;-91
2021/07/04 08:26:29;;;;;;;13.85;11.82;;;22.70;69.00;;;;;;5035170;28;20067;-88
2021/07/04 08:29:14;;;;;;;14.90;12.95;;;22.80;69.00;;;;;;5025138;28;20457;-88
2021/07/04 08:35:35;;;;;;;14.43;11.80;;;22.80;69.40;;;;;;5024138;28;20203;-88
2021/07/04 08:38:44;;;;;;;14.07;12.10;;;22.80;69.20;;;;;;5034307;28;20527;-87
2021/07/04 08:41:40;;;;;;;13.52;11.75;;;22.80;69.50;;;;;;4997307;28;20037;-92
2021/07/04 08:44:08;;;;;;;14.98;11.63;;;22.90;69.60;;;;;;5010893;28;20052;-84
2021/07/04 08:46:44;;;;;;;14.20;12.13;;;22.90;69.30;;;;;;5014773;28;20014;-84
2021/07/04 08:49:12;;;;;;;13.27;11.88;;;22.90;69.40;;;;;;5048959;28;20373;-84
2021/07/04 08:51:38;;;;;;;14.75;12.25;;;22.90;69.20;;;;;;5072440;28;20039;-84
2021/07/04 08:54:05;;;;;;;13.77;11.85;;;23.00;69.20;;;;;;5090708;28;20045;-84
2021/07/04 08:56:32;;;;;;;13.52;12.10;;;23.10;69.10;;;;;;5054784;28;20052;-84
2021/07/04 08:58:58;;;;;;;13.23;11.07;;;23.10;68.90;;;;;;5071188;28;20380;-85
2021/07/04 09:01:25;;;;;;;13.65;11.25;;;23.20;68.80;;;;;;5046946;28;20020;-83
2021/07/04 09:04:08;;;;;;;13.13;11.52;;;23.30;68.80;;;;;;5045561;28;20111;-84
2021/07/04 09:06:39;;;;;;;13.57;11.50;;;23.30;68.70;;;;;;5049857;28;20388;-85
2021/07/04 09:09:21;;;;;;;13.95;10.75;;;23.40;68.50;;;;;;5054693;28;20119;-83
2021/07/04 09:12:10;;;;;;;13.10;11.25;;;23.40;68.40;;;;;;5072128;28;20029;-84
2021/07/04 09:14:48;;;;;;;13.38;11.10;;;23.60;68.30;;;;;;5045674;28;20033;-84
2021/07/04 09:17:16;;;;;;;12.07;10.77;;;23.60;68.10;;;;;;5069820;28;20119;-83
2021/07/04 09:19:54;;;;;;;11.65;10.38;;;23.70;68.00;;;;;;5054825;28;20023;-84
2021/07/04 09:22:36;;;;;;;12.82;10.63;;;23.70;68.10;;;;;;5053306;28;20031;-83
2021/07/04 09:25:17;;;;;;;12.23;10.50;;;23.80;67.90;;;;;;5070504;28;20128;-87
2021/07/04 09:28:07;;;;;;;11.20;9.75;;;23.90;67.80;;;;;;5045781;28;20025;-86
2021/07/04 09:30:45;;;;;;;11.73;9.68;;;24.00;67.80;;;;;;5055454;28;20111;-86
2021/07/04 09:33:18;;;;;;;10.40;9.10;;;24.00;67.50;;;;;;5054940;28;20035;-85
2021/07/04 09:35:58;;;;;;;10.73;9.43;;;24.20;67.60;;;;;;5055257;28;20033;-89
2021/07/04 09:39:00;;;;;;;9.70;8.68;;;24.20;67.50;;;;;;5064463;28;20457;-90
2021/07/04 09:41:29;;;;;;;10.77;8.88;;;24.30;67.40;;;;;;5014871;28;20026;-89
2021/07/04 09:44:23;;;;;;;10.85;8.93;;;24.40;67.10;;;;;;5030380;28;20033;-90
2021/07/04 09:47:21;;;;;;;10.35;8.30;;;24.50;67.10;;;;;;5014366;28;20060;-89
2021/07/04 09:50:27;;;;;;;9.80;8.20;;;24.60;67.00;;;;;;5025679;28;20029;-89
2021/07/04 09:53:03;;;;;;;9.18;8.13;;;24.70;66.80;;;;;;5014622;28;20046;-80
2021/07/04 09:55:43;;;;;;;9.38;7.88;;;24.80;66.60;;;;;;5027107;28;20044;-88
2021/07/04 10:01:52;;;;;;;7.93;7.13;;;25.00;66.30;;;;;;5067382;28;20483;-88
2021/07/04 10:04:36;;;;;;;8.13;6.93;;;25.10;66.20;;;;;;5056902;28;20043;-87
2021/07/04 10:07:09;;;;;;;7.88;6.88;;;25.10;66.00;;;;;;5038270;28;20045;-89
2021/07/04 10:09:48;;;;;;;;;;;25.20;65.90;;;;;;5016736;28;20037;-88
2021/07/04 10:12:27;;;;;;;7.43;6.22;;;25.30;65.70;;;;;;5030433;28;20278;-88
2021/07/04 10:15:04;;;;;;;6.85;5.72;;;25.30;65.50;;;;;;5043106;28;20044;-88
2021/07/04 10:17:33;;;;;;;7.97;6.13;;;25.40;65.50;;;;;;5074647;28;20086;-88
2021/07/04 10:20:20;;;;;;;7.03;6.10;;;25.50;65.50;;;;;;5074851;28;20020;-90
2021/07/04 10:23:10;;;;;;;7.72;6.70;;;25.50;65.50;;;;;;5092106;28;20050;-89
2021/07/04 10:25:51;;;;;;;7.80;6.60;;;25.60;65.30;;;;;;5072135;28;20040;-89
2021/07/04 10:28:42;;;;;;;7.63;6.68;;;25.70;65.20;;;;;;5078859;28;20035;-89
2021/07/04 10:31:27;;;;;;;6.78;5.95;;;25.80;65.20;;;;;;5095126;28;20078;-89
2021/07/04 10:34:14;;;;;;;7.65;6.10;;;25.80;65.10;;;;;;5071701;28;20035;-89
2021/07/04 10:37:03;;;;;;;7.03;6.13;;;25.90;65.00;;;;;;5078068;28;20030;-89
2021/07/04 10:39:39;;;;;;;7.45;6.57;;;25.90;65.00;;;;;;5096551;28;20456;-89
2021/07/04 10:42:12;;;;;;;7.10;6.03;;;26.00;64.80;;;;;;5082007;28;20032;-89
2021/07/04 10:44:54;;;;;;;7.72;6.35;;;26.10;64.80;;;;;;5080386;28;20039;-88
2021/07/04 10:47:36;;;;;;;7.13;6.28;;;26.10;64.80;;;;;;5082894;28;20031;-89
2021/07/04 10:50:20;;;;;;;7.00;5.63;;;26.20;64.60;;;;;;5071949;28;20027;-88
2021/07/04 10:53:06;;;;;;;6.80;5.45;;;26.20;64.60;;;;;;5083408;28;20077;-89
2021/07/04 10:55:38;;;;;;;8.20;6.40;;;26.30;64.60;;;;;;5083196;28;20099;-90
2021/07/04 10:58:07;;;;;;;7.35;5.88;;;26.40;64.40;;;;;;5083519;28;20040;-89
2021/07/04 11:00:46;;;;;;;7.15;6.03;;;26.40;64.30;;;;;;5066533;28;20046;-89
2021/07/04 11:03:37;;;;;;;7.15;6.05;;;26.50;64.30;;;;;;5081822;28;20036;-87
2021/07/04 11:06:04;;;;;;;7.60;6.40;;;26.50;64.30;;;;;;5048046;28;20184;-88
2021/07/04 11:08:51;;;;;;;6.55;5.72;;;26.60;64.10;;;;;;5079092;28;20448;-88
2021/07/04 11:11:29;;;;;;;6.75;5.70;;;26.60;64.00;;;;;;5058952;28;20044;-89
2021/07/04 11:14:13;;;;;;;7.25;6.10;;;26.70;64.00;;;;;;5074408;28;20028;-88
2021/07/04 11:17:04;;;;;;;6.88;5.68;;;26.70;63.90;;;;;;5059637;28;20040;-88
2021/07/04 11:20:06;;;;;;;6.68;5.97;;;26.80;64.00;;;;;;5062609;28;20036;-88
2021/07/04 11:22:57;;;;;;;7.30;5.63;;;26.80;63.90;;;;;;5089356;28;20483;-89
2021/07/04 11:25:47;;;;;;;6.60;5.75;;;26.90;63.90;;;;;;5097062;28;20119;-89
2021/07/04 11:28:20;;;;;;;6.70;5.57;;;26.90;63.70;;;;;;5077548;28;20028;-88
2021/07/04 11:31:01;;;;;;;7.43;6.05;;;26.90;63.70;;;;;;5095155;28;20028;-88
2021/07/04 11:33:32;;;;;;;6.40;5.70;;;27.00;63.70;;;;;;5079251;28;20119;-87
2021/07/04 11:36:36;;;;;;;6.00;5.25;;;27.00;63.60;;;;;;5079338;28;20031;-89
2021/07/04 11:39:13;;;;;;;6.82;5.72;;;27.00;63.60;;;;;;5067542;28;20025;-88
2021/07/04 11:41:57;;;;;;;6.55;5.80;;;27.00;63.60;;;;;;5072997;28;20032;-89
2021/07/04 11:44:29;;;;;;;6.95;5.85;;;27.00;63.60;;;;;;5061083;28;20127;-89
2021/07/04 11:47:04;;;;;;;6.53;5.65;;;27.10;63.60;;;;;;5069772;28;20036;-89
2021/07/04 11:49:38;;;;;;;6.85;6.15;;;27.10;63.50;;;;;;5052203;28;20029;-89
2021/07/04 11:52:06;;;;;;;6.50;5.30;;;27.10;63.50;;;;;;5069689;28;20472;-89
2021/07/04 11:54:40;;;;;;;6.70;5.53;;;27.10;63.40;;;;;;5076322;28;20044;-89
2021/07/04 11:57:34;;;;;;;5.93;5.20;;;27.10;63.40;;;;;;5068623;28;20544;-89
2021/07/04 12:00:35;;;;;;;6.10;5.18;;;27.20;63.40;;;;;;5076319;28;20393;-86
2021/07/04 12:03:30;;;;;;;6.25;5.25;;;27.20;63.60;;;;;;5075222;28;20040;-88
2021/07/04 12:06:09;;;;;;;;;;;27.20;63.40;;;;;;5067924;28;20055;-87
2021/07/04 12:09:07;;;;;;;5.18;4.30;;;27.30;63.40;;;;;;5076808;28;19911;-87
2021/07/04 12:12:02;;;;;;;5.45;4.45;;;27.20;63.40;;;;;;5067715;28;20024;-87
2021/07/04 12:14:34;;;;;;;5.97;4.82;;;27.30;63.30;;;;;;5084181;28;20626;-88
2021/07/04 12:17:43;;;;;;;6.05;5.07;;;27.30;63.40;;;;;;5084324;28;20115;-90
2021/07/04 12:20:16;;;;;;;5.88;4.88;;;27.30;63.50;;;;;;5069335;28;20067;-87
2021/07/04 12:23:00;;;;;;;6.63;4.95;;;27.30;63.30;;;;;;5092677;28;20092;-87
2021/07/04 12:25:47;;;;;;;5.80;4.85;;;27.40;63.40;;;;;;5076398;28;20051;-89
2021/07/04 12:28:29;;;;;;;6.10;4.80;;;27.40;63.40;;;;;;5075992;28;20028;-90
2021/07/04 12:31:07;;;;;;;5.50;4.72;;;27.40;63.20;;;;;;5058866;28;20035;-88
2021/07/04 12:33:42;;;;;;;6.15;5.10;;;27.50;63.20;;;;;;5074841;28;20032;-88
2021/07/04 12:36:22;;;;;;;6.40;4.80;;;27.50;63.20;;;;;;5076870;28;20119;-88
2021/07/04 12:38:52;;;;;;;4.80;4.25;;;27.50;63.00;;;;;;5048550;28;20064;-86
2021/07/04 12:41:20;;;;;;;6.57;4.93;;;27.50;63.00;;;;;;5072138;28;20024;-86
2021/07/04 12:43:50;;;;;;;5.25;4.30;;;27.60;63.10;;;;;;5041523;28;20036;-88
2021/07/04 12:46:22;;;;;;;5.78;4.53;;;27.60;63.00;;;;;;5092221;28;20069;-86
2021/07/04 12:48:55;;;;;;;5.53;4.50;;;27.60;62.90;;;;;;5075511;28;20044;-87
2021/07/04 12:51:26;;;;;;;5.45;4.18;;;27.60;62.90;;;;;;5075876;28;20024;-86
2021/07/04 12:53:52;;;;;;;5.25;4.03;;;27.70;62.90;;;;;;5083002;28;20028;-85
2021/07/04 12:56:19;;;;;;;5.32;4.25;;;27.70;62.80;;;;;;5072736;28;20044;-87
2021/07/04 12:58:54;;;;;;;4.15;3.60;;;27.70;62.70;;;;;;5072860;28;20016;-86
2021/07/04 13:01:40;;;;;;;5.15;4.03;;;27.70;62.70;;;;;;5089722;28;20035;-86
2021/07/04 13:04:15;;;;;;;4.68;3.85;;;27.70;62.70;;;;;;5088130;28;20036;-88
2021/07/04 13:06:45;;;;;;;4.88;3.78;;;27.80;62.60;;;;;;5060911;28;20448;-86
2021/07/04 13:09:44;;;;;;;4.60;3.90;;;27.80;62.50;;;;;;5072547;28;20360;-86
2021/07/04 13:12:22;;;;;;;4.95;3.85;;;27.80;62.50;;;;;;5065733;28;20068;-86
2021/07/04 13:14:59;;;;;;;4.80;3.92;;;27.80;62.50;;;;;;5057860;28;20135;-88
2021/07/04 13:17:28;;;;;;;4.53;3.45;;;27.80;62.30;;;;;;5067308;28;20036;-87
2021/07/04 13:19:59;;;;;;;4.55;3.60;;;27.80;62.30;;;;;;5072612;28;20533;-87
2021/07/04 13:22:34;;;;;;;4.85;3.55;;;27.90;62.30;;;;;;5070835;28;20362;-87